sensor_id;sensor_type;location;lat;lon;timestamp;temperature;humidity
28460;DHT22;32528;45.712;9.192;2022-12-18T00:01:18;6.60;99.90
28460;DHT22;32528;45.712;9.192;2022-12-18T00:03:19;6.60;99.90
28460;DHT22;32528;45.712;9.192;2022-12-18T00:05:19;6.50;99.90
28460;DHT22;32528;45.712;9.192;2022-12-18T00:07:21;6.50;99.90
28460;DHT22;32528;45.712;9.192;2022-12-18T00:09:22;6.40;99.90
28460;DHT22;32528;45.712;9.192;2022-12-18T00:11:23;6.40;99.90
28460;DHT22;32528;45.712;9.192;2022-12-18T00:13:24;6.40;99.90
28460;DHT22;32528;45.712;9.192;2022-12-18T00:15:24;6.40;99.90
28460;DHT22;32528;45.712;9.192;2022-12-18T00:17:26;6.40;99.90
28460;DHT22;32528;45.712;9.192;2022-12-18T00:19:27;6.50;99.90
28460;DHT22;32528;45.712;9.192;2022-12-18T00:21:28;6.50;99.90
28460;DHT22;32528;45.712;9.192;2022-12-18T00:23:30;6.50;99.90
28460;DHT22;32528;45.712;9.192;2022-12-18T00:25:34;6.50;99.90
28460;DHT22;32528;45.712;9.192;2022-12-18T00:27:35;6.60;99.90
28460;DHT22;32528;45.712;9.192;2022-12-18T00:29:35;6.60;99.90
28460;DHT22;32528;45.712;9.192;2022-12-18T00:31:36;6.60;99.90
28460;DHT22;32528;45.712;9.192;2022-12-18T00:33:37;6.60;99.90
28460;DHT22;32528;45.712;9.192;2022-12-18T00:35:38;6.70;99.90
28460;DHT22;32528;45.712;9.192;2022-12-18T00:37:39;6.70;99.90
28460;DHT22;32528;45.712;9.192;2022-12-18T00:39:39;6.80;99.90
28460;DHT22;32528;45.712;9.192;2022-12-18T00:41:40;6.80;99.90
28460;DHT22;32528;45.712;9.192;2022-12-18T00:43:59;6.80;99.90
28460;DHT22;32528;45.712;9.192;2022-12-18T00:46:00;6.80;99.90
28460;DHT22;32528;45.712;9.192;2022-12-18T00:48:01;6.80;99.90
28460;DHT22;32528;45.712;9.192;2022-12-18T00:50:01;6.80;99.90
28460;DHT22;32528;45.712;9.192;2022-12-18T00:52:03;6.80;99.90
28460;DHT22;32528;45.712;9.192;2022-12-18T00:54:04;6.90;99.90
28460;DHT22;32528;45.712;9.192;2022-12-18T00:56:05;6.90;99.90
28460;DHT22;32528;45.712;9.192;2022-12-18T00:58:06;6.90;99.90
28460;DHT22;32528;45.712;9.192;2022-12-18T01:00:07;7.00;99.90
28460;DHT22;32528;45.712;9.192;2022-12-18T01:02:09;7.00;99.90
28460;DHT22;32528;45.712;9.192;2022-12-18T01:04:11;7.10;99.90
28460;DHT22;32528;45.712;9.192;2022-12-18T01:06:12;7.00;99.90
28460;DHT22;32528;45.712;9.192;2022-12-18T01:08:13;7.10;99.90
28460;DHT22;32528;45.712;9.192;2022-12-18T01:10:17;7.10;99.90
28460;DHT22;32528;45.712;9.192;2022-12-18T01:12:18;7.10;99.90
28460;DHT22;32528;45.712;9.192;2022-12-18T01:14:19;7.10;99.90
28460;DHT22;32528;45.712;9.192;2022-12-18T01:16:19;7.10;99.90
28460;DHT22;32528;45.712;9.192;2022-12-18T01:18:20;7.10;99.90
28460;DHT22;32528;45.712;9.192;2022-12-18T01:20:21;7.10;99.90
28460;DHT22;32528;45.712;9.192;2022-12-18T01:22:21;7.10;99.90
28460;DHT22;32528;45.712;9.192;2022-12-18T01:24:22;7.10;99.90
28460;DHT22;32528;45.712;9.192;2022-12-18T01:26:24;7.10;99.90
28460;DHT22;32528;45.712;9.192;2022-12-18T01:28:25;7.20;99.90
28460;DHT22;32528;45.712;9.192;2022-12-18T01:30:26;7.20;99.90
28460;DHT22;32528;45.712;9.192;2022-12-18T01:32:29;7.20;99.90
28460;DHT22;32528;45.712;9.192;2022-12-18T01:34:30;7.20;99.90
28460;DHT22;32528;45.712;9.192;2022-12-18T01:36:32;7.20;99.90
28460;DHT22;32528;45.712;9.192;2022-12-18T01:38:33;7.20;99.90
28460;DHT22;32528;45.712;9.192;2022-12-18T01:40:34;7.20;99.90
28460;DHT22;32528;45.712;9.192;2022-12-18T01:42:34;7.20;99.90
28460;DHT22;32528;45.712;9.192;2022-12-18T01:45:35;7.20;99.90
28460;DHT22;32528;45.712;9.192;2022-12-18T01:47:05;7.20;99.90
28460;DHT22;32528;45.712;9.192;2022-12-18T01:49:06;7.30;99.90
28460;DHT22;32528;45.712;9.192;2022-12-18T01:51:07;7.20;99.90
28460;DHT22;32528;45.712;9.192;2022-12-18T01:53:17;7.20;99.90
28460;DHT22;32528;45.712;9.192;2022-12-18T01:55:19;7.20;99.90
28460;DHT22;32528;45.712;9.192;2022-12-18T01:57:20;7.20;99.90
28460;DHT22;32528;45.712;9.192;2022-12-18T01:59:22;7.10;99.90
28460;DHT22;32528;45.712;9.192;2022-12-18T02:01:23;7.20;99.90
28460;DHT22;32528;45.712;9.192;2022-12-18T02:03:24;7.20;99.90
28460;DHT22;32528;45.712;9.192;2022-12-18T02:05:31;7.20;99.90
28460;DHT22;32528;45.712;9.192;2022-12-18T02:09:42;7.20;99.90
28460;DHT22;32528;45.712;9.192;2022-12-18T02:13:53;7.20;99.90
28460;DHT22;32528;45.712;9.192;2022-12-18T02:16:02;7.20;99.90
28460;DHT22;32528;45.712;9.192;2022-12-18T02:18:07;7.30;99.90
28460;DHT22;32528;45.712;9.192;2022-12-18T02:20:12;7.30;99.90
28460;DHT22;32528;45.712;9.192;2022-12-18T02:22:24;7.30;99.90
28460;DHT22;32528;45.712;9.192;2022-12-18T02:24:29;7.30;99.90
28460;DHT22;32528;45.712;9.192;2022-12-18T02:26:34;7.20;99.90
28460;DHT22;32528;45.712;9.192;2022-12-18T02:28:46;7.20;99.90
28460;DHT22;32528;45.712;9.192;2022-12-18T02:30:49;7.20;99.90
28460;DHT22;32528;45.712;9.192;2022-12-18T02:32:53;7.20;99.90
28460;DHT22;32528;45.712;9.192;2022-12-18T02:34:55;7.20;99.90
28460;DHT22;32528;45.712;9.192;2022-12-18T02:36:58;7.20;99.90
28460;DHT22;32528;45.712;9.192;2022-12-18T02:39:01;7.30;99.90
28460;DHT22;32528;45.712;9.192;2022-12-18T02:41:02;7.30;99.90
28460;DHT22;32528;45.712;9.192;2022-12-18T02:43:07;7.30;99.90
28460;DHT22;32528;45.712;9.192;2022-12-18T02:45:08;7.20;99.90
28460;DHT22;32528;45.712;9.192;2022-12-18T02:47:11;7.20;99.90
28460;DHT22;32528;45.712;9.192;2022-12-18T02:51:40;7.30;99.90
28460;DHT22;32528;45.712;9.192;2022-12-18T02:53:53;7.30;99.90
28460;DHT22;32528;45.712;9.192;2022-12-18T02:58:04;7.30;99.90
28460;DHT22;32528;45.712;9.192;2022-12-18T03:00:12;7.30;99.90
28460;DHT22;32528;45.712;9.192;2022-12-18T03:04:29;7.20;99.90
28460;DHT22;32528;45.712;9.192;2022-12-18T03:06:40;7.20;99.90
28460;DHT22;32528;45.712;9.192;2022-12-18T03:08:43;7.20;99.90
28460;DHT22;32528;45.712;9.192;2022-12-18T03:10:51;7.20;99.90
28460;DHT22;32528;45.712;9.192;2022-12-18T03:13:08;7.20;99.90
28460;DHT22;32528;45.712;9.192;2022-12-18T03:17:17;7.20;99.90
28460;DHT22;32528;45.712;9.192;2022-12-18T03:19:21;7.20;99.90
28460;DHT22;32528;45.712;9.192;2022-12-18T03:21:27;7.10;99.90
28460;DHT22;32528;45.712;9.192;2022-12-18T03:23:29;7.10;99.90
28460;DHT22;32528;45.712;9.192;2022-12-18T03:25:34;7.10;99.90
28460;DHT22;32528;45.712;9.192;2022-12-18T03:27:36;7.10;99.90
28460;DHT22;32528;45.712;9.192;2022-12-18T03:29:47;7.10;99.90
28460;DHT22;32528;45.712;9.192;2022-12-18T03:32:31;7.20;99.90
28460;DHT22;32528;45.712;9.192;2022-12-18T03:34:26;7.20;99.90
28460;DHT22;32528;45.712;9.192;2022-12-18T03:36:33;7.20;99.90
28460;DHT22;32528;45.712;9.192;2022-12-18T03:38:35;7.20;99.90
28460;DHT22;32528;45.712;9.192;2022-12-18T03:44:49;7.20;99.90
28460;DHT22;32528;45.712;9.192;2022-12-18T03:46:55;7.10;99.90
28460;DHT22;32528;45.712;9.192;2022-12-18T03:49:07;7.20;99.90
28460;DHT22;32528;45.712;9.192;2022-12-18T03:51:12;7.10;99.90
28460;DHT22;32528;45.712;9.192;2022-12-18T03:55:21;7.20;99.90
28460;DHT22;32528;45.712;9.192;2022-12-18T03:57:28;7.10;99.90
28460;DHT22;32528;45.712;9.192;2022-12-18T03:59:31;7.10;99.90
28460;DHT22;32528;45.712;9.192;2022-12-18T04:01:34;7.20;99.90
28460;DHT22;32528;45.712;9.192;2022-12-18T04:03:36;7.10;99.90
28460;DHT22;32528;45.712;9.192;2022-12-18T04:05:41;7.10;99.90
28460;DHT22;32528;45.712;9.192;2022-12-18T04:07:42;7.10;99.90
28460;DHT22;32528;45.712;9.192;2022-12-18T04:09:45;7.10;99.90
28460;DHT22;32528;45.712;9.192;2022-12-18T04:11:47;7.10;99.90
28460;DHT22;32528;45.712;9.192;2022-12-18T04:13:49;7.10;99.90
28460;DHT22;32528;45.712;9.192;2022-12-18T04:15:56;7.10;99.90
28460;DHT22;32528;45.712;9.192;2022-12-18T04:17:58;7.10;99.90
28460;DHT22;32528;45.712;9.192;2022-12-18T04:20:05;7.10;99.90
28460;DHT22;32528;45.712;9.192;2022-12-18T04:22:06;7.20;99.90
28460;DHT22;32528;45.712;9.192;2022-12-18T04:24:14;7.20;99.90
28460;DHT22;32528;45.712;9.192;2022-12-18T04:26:22;7.10;99.90
28460;DHT22;32528;45.712;9.192;2022-12-18T04:28:42;7.20;99.90
28460;DHT22;32528;45.712;9.192;2022-12-18T04:30:43;7.20;99.90
28460;DHT22;32528;45.712;9.192;2022-12-18T04:32:44;7.20;99.90
28460;DHT22;32528;45.712;9.192;2022-12-18T04:34:44;7.20;99.90
28460;DHT22;32528;45.712;9.192;2022-12-18T04:36:46;7.20;99.90
28460;DHT22;32528;45.712;9.192;2022-12-18T04:38:47;7.10;99.90
28460;DHT22;32528;45.712;9.192;2022-12-18T04:40:50;7.10;99.90
28460;DHT22;32528;45.712;9.192;2022-12-18T04:42:58;7.10;99.90
28460;DHT22;32528;45.712;9.192;2022-12-18T04:44:59;7.10;99.90
28460;DHT22;32528;45.712;9.192;2022-12-18T04:46:59;7.00;99.90
28460;DHT22;32528;45.712;9.192;2022-12-18T04:49:00;7.00;99.90
28460;DHT22;32528;45.712;9.192;2022-12-18T04:51:01;6.90;99.90
28460;DHT22;32528;45.712;9.192;2022-12-18T04:53:02;7.00;99.90
28460;DHT22;32528;45.712;9.192;2022-12-18T04:55:02;7.00;99.90
28460;DHT22;32528;45.712;9.192;2022-12-18T04:57:03;7.10;99.90
28460;DHT22;32528;45.712;9.192;2022-12-18T04:59:04;7.10;99.90
28460;DHT22;32528;45.712;9.192;2022-12-18T05:01:06;7.10;99.90
28460;DHT22;32528;45.712;9.192;2022-12-18T05:03:07;7.10;99.90
28460;DHT22;32528;45.712;9.192;2022-12-18T05:05:08;6.90;99.90
28460;DHT22;32528;45.712;9.192;2022-12-18T05:07:09;6.80;99.90
28460;DHT22;32528;45.712;9.192;2022-12-18T05:09:09;6.80;99.90
28460;DHT22;32528;45.712;9.192;2022-12-18T05:11:11;6.80;99.90
28460;DHT22;32528;45.712;9.192;2022-12-18T05:13:12;6.90;99.90
28460;DHT22;32528;45.712;9.192;2022-12-18T05:15:13;6.90;99.90
28460;DHT22;32528;45.712;9.192;2022-12-18T05:17:13;6.90;99.90
28460;DHT22;32528;45.712;9.192;2022-12-18T05:19:14;6.80;99.90
28460;DHT22;32528;45.712;9.192;2022-12-18T05:21:15;6.80;99.90
28460;DHT22;32528;45.712;9.192;2022-12-18T05:23:15;6.80;99.90
28460;DHT22;32528;45.712;9.192;2022-12-18T05:25:16;6.90;99.90
28460;DHT22;32528;45.712;9.192;2022-12-18T05:27:17;6.90;99.90
28460;DHT22;32528;45.712;9.192;2022-12-18T05:29:19;7.00;99.90
28460;DHT22;32528;45.712;9.192;2022-12-18T05:31:20;6.90;99.90
28460;DHT22;32528;45.712;9.192;2022-12-18T05:33:21;6.90;99.90
28460;DHT22;32528;45.712;9.192;2022-12-18T05:35:22;6.90;99.90
28460;DHT22;32528;45.712;9.192;2022-12-18T05:37:23;6.80;99.90
28460;DHT22;32528;45.712;9.192;2022-12-18T05:39:23;6.80;99.90
28460;DHT22;32528;45.712;9.192;2022-12-18T05:41:24;6.80;99.90
28460;DHT22;32528;45.712;9.192;2022-12-18T05:43:25;6.80;99.90
28460;DHT22;32528;45.712;9.192;2022-12-18T05:45:26;6.80;99.90
28460;DHT22;32528;45.712;9.192;2022-12-18T05:47:27;6.70;99.90
28460;DHT22;32528;45.712;9.192;2022-12-18T05:49:29;6.70;99.90
28460;DHT22;32528;45.712;9.192;2022-12-18T05:51:29;6.70;99.90
28460;DHT22;32528;45.712;9.192;2022-12-18T05:53:30;6.70;99.90
28460;DHT22;32528;45.712;9.192;2022-12-18T05:55:37;6.70;99.90
28460;DHT22;32528;45.712;9.192;2022-12-18T05:57:38;6.70;99.90
28460;DHT22;32528;45.712;9.192;2022-12-18T05:59:39;6.70;99.90
28460;DHT22;32528;45.712;9.192;2022-12-18T06:01:39;6.70;99.90
28460;DHT22;32528;45.712;9.192;2022-12-18T06:03:41;6.70;99.90
28460;DHT22;32528;45.712;9.192;2022-12-18T06:05:43;6.70;99.90
28460;DHT22;32528;45.712;9.192;2022-12-18T06:07:44;6.70;99.90
28460;DHT22;32528;45.712;9.192;2022-12-18T06:09:45;6.70;99.90
28460;DHT22;32528;45.712;9.192;2022-12-18T06:11:45;6.70;99.90
28460;DHT22;32528;45.712;9.192;2022-12-18T06:13:46;6.60;99.90
28460;DHT22;32528;45.712;9.192;2022-12-18T06:15:49;6.50;99.90
28460;DHT22;32528;45.712;9.192;2022-12-18T06:17:50;6.50;99.90
28460;DHT22;32528;45.712;9.192;2022-12-18T06:19:50;6.50;99.90
28460;DHT22;32528;45.712;9.192;2022-12-18T06:21:51;6.60;99.90
28460;DHT22;32528;45.712;9.192;2022-12-18T06:23:52;6.50;99.90
28460;DHT22;32528;45.712;9.192;2022-12-18T06:25:52;6.60;99.90
28460;DHT22;32528;45.712;9.192;2022-12-18T06:27:53;6.50;99.90
28460;DHT22;32528;45.712;9.192;2022-12-18T06:29:54;6.40;99.90
28460;DHT22;32528;45.712;9.192;2022-12-18T06:31:54;6.40;99.90
28460;DHT22;32528;45.712;9.192;2022-12-18T06:33:55;6.40;99.90
28460;DHT22;32528;45.712;9.192;2022-12-18T06:36:03;6.40;99.90
28460;DHT22;32528;45.712;9.192;2022-12-18T06:38:04;6.40;99.90
28460;DHT22;32528;45.712;9.192;2022-12-18T06:40:05;6.50;99.90
28460;DHT22;32528;45.712;9.192;2022-12-18T06:42:06;6.50;99.90
28460;DHT22;32528;45.712;9.192;2022-12-18T06:44:07;6.50;99.90
28460;DHT22;32528;45.712;9.192;2022-12-18T06:46:08;6.50;99.90
28460;DHT22;32528;45.712;9.192;2022-12-18T06:48:09;6.50;99.90
28460;DHT22;32528;45.712;9.192;2022-12-18T06:50:10;6.50;99.90
28460;DHT22;32528;45.712;9.192;2022-12-18T06:52:11;6.50;99.90
28460;DHT22;32528;45.712;9.192;2022-12-18T06:54:12;6.60;99.90
28460;DHT22;32528;45.712;9.192;2022-12-18T06:56:13;6.60;99.90
28460;DHT22;32528;45.712;9.192;2022-12-18T06:58:14;6.60;99.90
28460;DHT22;32528;45.712;9.192;2022-12-18T07:00:15;6.60;99.90
28460;DHT22;32528;45.712;9.192;2022-12-18T07:02:16;6.50;99.90
28460;DHT22;32528;45.712;9.192;2022-12-18T07:04:17;6.50;99.90
28460;DHT22;32528;45.712;9.192;2022-12-18T07:06:19;6.60;99.90
28460;DHT22;32528;45.712;9.192;2022-12-18T07:08:20;6.60;99.90
28460;DHT22;32528;45.712;9.192;2022-12-18T07:10:21;6.50;99.90
28460;DHT22;32528;45.712;9.192;2022-12-18T07:12:22;6.50;99.90
28460;DHT22;32528;45.712;9.192;2022-12-18T07:14:22;6.50;99.90
28460;DHT22;32528;45.712;9.192;2022-12-18T07:16:23;6.60;99.90
28460;DHT22;32528;45.712;9.192;2022-12-18T07:18:24;6.60;99.90
28460;DHT22;32528;45.712;9.192;2022-12-18T07:20:24;6.70;99.90
28460;DHT22;32528;45.712;9.192;2022-12-18T07:22:25;6.60;99.90
28460;DHT22;32528;45.712;9.192;2022-12-18T07:24:26;6.60;99.90
28460;DHT22;32528;45.712;9.192;2022-12-18T07:26:27;6.60;99.90
28460;DHT22;32528;45.712;9.192;2022-12-18T07:28:27;6.60;99.90
28460;DHT22;32528;45.712;9.192;2022-12-18T07:30:28;6.60;99.90
28460;DHT22;32528;45.712;9.192;2022-12-18T07:32:30;6.70;99.90
28460;DHT22;32528;45.712;9.192;2022-12-18T07:34:30;6.70;99.90
28460;DHT22;32528;45.712;9.192;2022-12-18T07:36:31;6.60;99.90
28460;DHT22;32528;45.712;9.192;2022-12-18T07:38:32;6.60;99.90
28460;DHT22;32528;45.712;9.192;2022-12-18T07:40:33;6.60;99.90
28460;DHT22;32528;45.712;9.192;2022-12-18T07:42:34;6.60;99.90
28460;DHT22;32528;45.712;9.192;2022-12-18T07:44:35;6.60;99.90
28460;DHT22;32528;45.712;9.192;2022-12-18T07:46:36;6.60;99.90
28460;DHT22;32528;45.712;9.192;2022-12-18T07:48:37;6.60;99.90
28460;DHT22;32528;45.712;9.192;2022-12-18T07:50:37;6.70;99.90
28460;DHT22;32528;45.712;9.192;2022-12-18T07:52:38;6.80;99.90
28460;DHT22;32528;45.712;9.192;2022-12-18T07:54:39;6.80;99.90
28460;DHT22;32528;45.712;9.192;2022-12-18T07:56:40;7.00;99.90
28460;DHT22;32528;45.712;9.192;2022-12-18T07:58:41;7.00;99.90
28460;DHT22;32528;45.712;9.192;2022-12-18T08:00:42;7.00;99.90
28460;DHT22;32528;45.712;9.192;2022-12-18T08:02:43;7.10;99.90
28460;DHT22;32528;45.712;9.192;2022-12-18T08:04:43;7.10;99.90
28460;DHT22;32528;45.712;9.192;2022-12-18T08:06:44;7.20;99.90
28460;DHT22;32528;45.712;9.192;2022-12-18T08:08:45;7.10;99.90
28460;DHT22;32528;45.712;9.192;2022-12-18T08:10:45;7.10;99.90
28460;DHT22;32528;45.712;9.192;2022-12-18T08:12:48;7.10;99.90
28460;DHT22;32528;45.712;9.192;2022-12-18T08:14:49;7.10;99.90
28460;DHT22;32528;45.712;9.192;2022-12-18T08:16:50;7.10;99.90
28460;DHT22;32528;45.712;9.192;2022-12-18T08:18:51;7.20;99.90
28460;DHT22;32528;45.712;9.192;2022-12-18T08:20:52;7.30;99.90
28460;DHT22;32528;45.712;9.192;2022-12-18T08:22:53;7.40;99.90
28460;DHT22;32528;45.712;9.192;2022-12-18T08:24:54;7.50;99.90
28460;DHT22;32528;45.712;9.192;2022-12-18T08:26:55;7.60;99.90
28460;DHT22;32528;45.712;9.192;2022-12-18T08:28:58;7.60;99.90
28460;DHT22;32528;45.712;9.192;2022-12-18T08:30:59;7.70;99.90
28460;DHT22;32528;45.712;9.192;2022-12-18T08:32:59;7.80;99.90
28460;DHT22;32528;45.712;9.192;2022-12-18T08:35:00;7.80;99.90
28460;DHT22;32528;45.712;9.192;2022-12-18T08:37:01;7.80;99.90
28460;DHT22;32528;45.712;9.192;2022-12-18T08:39:02;7.80;99.90
28460;DHT22;32528;45.712;9.192;2022-12-18T08:41:04;7.90;99.90
28460;DHT22;32528;45.712;9.192;2022-12-18T08:43:05;7.80;99.90
28460;DHT22;32528;45.712;9.192;2022-12-18T08:45:24;7.80;99.90
28460;DHT22;32528;45.712;9.192;2022-12-18T08:47:25;7.90;99.90
28460;DHT22;32528;45.712;9.192;2022-12-18T08:49:26;8.00;99.90
28460;DHT22;32528;45.712;9.192;2022-12-18T08:51:26;8.00;99.90
28460;DHT22;32528;45.712;9.192;2022-12-18T08:53:27;8.10;99.90
28460;DHT22;32528;45.712;9.192;2022-12-18T08:55:28;8.10;99.90
28460;DHT22;32528;45.712;9.192;2022-12-18T08:57:28;8.20;99.90
28460;DHT22;32528;45.712;9.192;2022-12-18T08:59:32;8.20;99.90
28460;DHT22;32528;45.712;9.192;2022-12-18T09:01:32;8.20;99.90
28460;DHT22;32528;45.712;9.192;2022-12-18T09:03:33;8.30;99.90
28460;DHT22;32528;45.712;9.192;2022-12-18T09:05:34;8.30;99.90
28460;DHT22;32528;45.712;9.192;2022-12-18T09:07:34;8.40;99.90
28460;DHT22;32528;45.712;9.192;2022-12-18T09:09:35;8.50;99.90
28460;DHT22;32528;45.712;9.192;2022-12-18T09:11:36;8.60;99.90
28460;DHT22;32528;45.712;9.192;2022-12-18T09:13:37;8.50;99.90
28460;DHT22;32528;45.712;9.192;2022-12-18T09:15:45;8.50;99.90
28460;DHT22;32528;45.712;9.192;2022-12-18T09:17:45;8.50;99.90
28460;DHT22;32528;45.712;9.192;2022-12-18T09:19:46;8.70;99.90
28460;DHT22;32528;45.712;9.192;2022-12-18T09:21:47;8.70;99.90
28460;DHT22;32528;45.712;9.192;2022-12-18T09:23:50;8.70;99.50
28460;DHT22;32528;45.712;9.192;2022-12-18T09:25:51;8.70;99.00
28460;DHT22;32528;45.712;9.192;2022-12-18T09:27:52;8.70;99.40
28460;DHT22;32528;45.712;9.192;2022-12-18T09:29:52;8.80;99.10
28460;DHT22;32528;45.712;9.192;2022-12-18T09:31:53;8.80;98.20
28460;DHT22;32528;45.712;9.192;2022-12-18T09:33:54;8.90;97.70
28460;DHT22;32528;45.712;9.192;2022-12-18T09:35:55;8.90;97.60
28460;DHT22;32528;45.712;9.192;2022-12-18T09:37:56;8.90;97.50
28460;DHT22;32528;45.712;9.192;2022-12-18T09:39:56;8.90;96.70
28460;DHT22;32528;45.712;9.192;2022-12-18T09:41:58;9.00;97.50
28460;DHT22;32528;45.712;9.192;2022-12-18T09:44:00;9.10;97.30
28460;DHT22;32528;45.712;9.192;2022-12-18T09:46:03;9.20;97.30
28460;DHT22;32528;45.712;9.192;2022-12-18T09:48:05;9.20;97.70
28460;DHT22;32528;45.712;9.192;2022-12-18T09:50:17;9.30;97.10
28460;DHT22;32528;45.712;9.192;2022-12-18T09:52:25;9.40;97.10
28460;DHT22;32528;45.712;9.192;2022-12-18T09:54:35;9.30;97.80
28460;DHT22;32528;45.712;9.192;2022-12-18T09:56:37;9.30;97.30
28460;DHT22;32528;45.712;9.192;2022-12-18T09:58:41;9.30;97.80
28460;DHT22;32528;45.712;9.192;2022-12-18T10:00:44;9.30;97.80
28460;DHT22;32528;45.712;9.192;2022-12-18T10:02:45;9.30;97.50
28460;DHT22;32528;45.712;9.192;2022-12-18T10:04:48;9.40;97.40
28460;DHT22;32528;45.712;9.192;2022-12-18T10:09:34;9.40;96.90
28460;DHT22;32528;45.712;9.192;2022-12-18T10:13:57;9.50;96.30
28460;DHT22;32528;45.712;9.192;2022-12-18T10:20:14;9.60;96.10
28460;DHT22;32528;45.712;9.192;2022-12-18T10:24:30;9.60;94.20
28460;DHT22;32528;45.712;9.192;2022-12-18T10:26:33;9.60;94.80
28460;DHT22;32528;45.712;9.192;2022-12-18T10:28:35;9.70;95.30
28460;DHT22;32528;45.712;9.192;2022-12-18T10:30:36;9.70;94.90
28460;DHT22;32528;45.712;9.192;2022-12-18T10:32:38;9.70;95.00
28460;DHT22;32528;45.712;9.192;2022-12-18T10:34:39;9.80;94.80
28460;DHT22;32528;45.712;9.192;2022-12-18T10:36:40;9.70;94.80
28460;DHT22;32528;45.712;9.192;2022-12-18T10:38:41;9.80;95.00
28460;DHT22;32528;45.712;9.192;2022-12-18T10:47:11;10.00;94.90
28460;DHT22;32528;45.712;9.192;2022-12-18T10:49:24;10.00;95.00
28460;DHT22;32528;45.712;9.192;2022-12-18T10:51:30;10.20;95.70
28460;DHT22;32528;45.712;9.192;2022-12-18T10:53:31;10.30;94.40
28460;DHT22;32528;45.712;9.192;2022-12-18T10:55:37;10.30;94.60
28460;DHT22;32528;45.712;9.192;2022-12-18T10:57:39;10.30;93.70
28460;DHT22;32528;45.712;9.192;2022-12-18T10:59:51;10.40;94.60
28460;DHT22;32528;45.712;9.192;2022-12-18T11:01:53;10.30;94.20
28460;DHT22;32528;45.712;9.192;2022-12-18T11:04:00;10.30;94.60
28460;DHT22;32528;45.712;9.192;2022-12-18T11:08:11;10.40;94.10
28460;DHT22;32528;45.712;9.192;2022-12-18T11:10:21;10.40;93.80
28460;DHT22;32528;45.712;9.192;2022-12-18T11:12:22;10.40;94.00
28460;DHT22;32528;45.712;9.192;2022-12-18T11:16:43;10.50;93.40
28460;DHT22;32528;45.712;9.192;2022-12-18T11:18:44;10.60;93.50
28460;DHT22;32528;45.712;9.192;2022-12-18T11:20:49;10.70;93.50
28460;DHT22;32528;45.712;9.192;2022-12-18T11:22:54;10.80;92.80
28460;DHT22;32528;45.712;9.192;2022-12-18T11:25:05;10.80;92.70
28460;DHT22;32528;45.712;9.192;2022-12-18T11:27:15;10.90;92.80
28460;DHT22;32528;45.712;9.192;2022-12-18T11:29:17;10.90;92.50
28460;DHT22;32528;45.712;9.192;2022-12-18T11:33:20;10.90;92.60
28460;DHT22;32528;45.712;9.192;2022-12-18T11:37:31;10.90;92.40
28460;DHT22;32528;45.712;9.192;2022-12-18T11:41:46;10.70;92.90
28460;DHT22;32528;45.712;9.192;2022-12-18T11:44:06;10.70;92.90
28460;DHT22;32528;45.712;9.192;2022-12-18T11:46:18;10.90;93.30
28460;DHT22;32528;45.712;9.192;2022-12-18T11:49:06;11.00;93.00
28460;DHT22;32528;45.712;9.192;2022-12-18T11:50:56;11.10;91.70
28460;DHT22;32528;45.712;9.192;2022-12-18T11:52:57;11.10;92.20
28460;DHT22;32528;45.712;9.192;2022-12-18T11:54:58;11.00;92.60
28460;DHT22;32528;45.712;9.192;2022-12-18T12:01:18;10.80;92.90
28460;DHT22;32528;45.712;9.192;2022-12-18T12:10:05;10.90;91.70
28460;DHT22;32528;45.712;9.192;2022-12-18T12:14:21;10.90;90.90
28460;DHT22;32528;45.712;9.192;2022-12-18T12:27:09;10.60;93.00
28460;DHT22;32528;45.712;9.192;2022-12-18T12:29:21;10.60;93.30
28460;DHT22;32528;45.712;9.192;2022-12-18T12:33:45;10.70;93.20
28460;DHT22;32528;45.712;9.192;2022-12-18T12:36:04;10.80;93.70
28460;DHT22;32528;45.712;9.192;2022-12-18T12:38:11;10.90;94.10
28460;DHT22;32528;45.712;9.192;2022-12-18T12:40:15;11.00;93.20
28460;DHT22;32528;45.712;9.192;2022-12-18T12:42:29;11.10;93.40
28460;DHT22;32528;45.712;9.192;2022-12-18T12:44:50;11.20;93.90
28460;DHT22;32528;45.712;9.192;2022-12-18T12:46:55;11.00;94.10
28460;DHT22;32528;45.712;9.192;2022-12-18T12:48:56;10.90;94.80
28460;DHT22;32528;45.712;9.192;2022-12-18T12:51:00;10.80;95.00
28460;DHT22;32528;45.712;9.192;2022-12-18T12:53:01;10.60;95.20
28460;DHT22;32528;45.712;9.192;2022-12-18T12:55:12;10.60;95.30
28460;DHT22;32528;45.712;9.192;2022-12-18T12:57:21;10.60;95.80
28460;DHT22;32528;45.712;9.192;2022-12-18T13:03:46;10.30;96.20
28460;DHT22;32528;45.712;9.192;2022-12-18T13:07:55;10.10;97.20
28460;DHT22;32528;45.712;9.192;2022-12-18T13:12:14;10.30;97.50
28460;DHT22;32528;45.712;9.192;2022-12-18T13:14:38;10.50;97.80
28460;DHT22;32528;45.712;9.192;2022-12-18T13:16:39;10.60;97.80
28460;DHT22;32528;45.712;9.192;2022-12-18T13:18:40;10.70;97.50
28460;DHT22;32528;45.712;9.192;2022-12-18T13:22:55;10.50;97.90
28460;DHT22;32528;45.712;9.192;2022-12-18T13:24:55;10.50;98.00
28460;DHT22;32528;45.712;9.192;2022-12-18T13:26:56;10.70;98.10
28460;DHT22;32528;45.712;9.192;2022-12-18T13:28:57;10.60;97.80
28460;DHT22;32528;45.712;9.192;2022-12-18T13:30:58;10.40;97.90
28460;DHT22;32528;45.712;9.192;2022-12-18T13:39:33;10.20;97.80
28460;DHT22;32528;45.712;9.192;2022-12-18T13:41:34;10.30;97.90
28460;DHT22;32528;45.712;9.192;2022-12-18T13:43:55;10.10;97.90
28460;DHT22;32528;45.712;9.192;2022-12-18T13:46:02;10.20;97.70
28460;DHT22;32528;45.712;9.192;2022-12-18T13:48:04;10.20;97.80
28460;DHT22;32528;45.712;9.192;2022-12-18T13:50:22;10.40;97.90
28460;DHT22;32528;45.712;9.192;2022-12-18T13:52:27;10.50;98.00
28460;DHT22;32528;45.712;9.192;2022-12-18T13:56:31;10.40;97.70
28460;DHT22;32528;45.712;9.192;2022-12-18T13:58:32;10.50;97.60
28460;DHT22;32528;45.712;9.192;2022-12-18T14:00:33;10.50;97.70
28460;DHT22;32528;45.712;9.192;2022-12-18T14:02:35;10.50;97.80
28460;DHT22;32528;45.712;9.192;2022-12-18T14:04:35;10.40;97.80
28460;DHT22;32528;45.712;9.192;2022-12-18T14:06:36;10.40;97.80
28460;DHT22;32528;45.712;9.192;2022-12-18T14:08:37;10.50;97.80
28460;DHT22;32528;45.712;9.192;2022-12-18T14:10:43;10.40;97.90
28460;DHT22;32528;45.712;9.192;2022-12-18T14:12:45;10.40;97.90
28460;DHT22;32528;45.712;9.192;2022-12-18T14:14:59;10.40;97.60
28460;DHT22;32528;45.712;9.192;2022-12-18T14:17:00;10.40;97.30
28460;DHT22;32528;45.712;9.192;2022-12-18T14:19:01;10.40;97.40
28460;DHT22;32528;45.712;9.192;2022-12-18T14:21:03;10.50;97.10
28460;DHT22;32528;45.712;9.192;2022-12-18T14:23:04;10.40;97.30
28460;DHT22;32528;45.712;9.192;2022-12-18T14:25:13;10.30;97.40
28460;DHT22;32528;45.712;9.192;2022-12-18T14:27:21;10.30;97.60
28460;DHT22;32528;45.712;9.192;2022-12-18T14:31:26;10.00;98.10
28460;DHT22;32528;45.712;9.192;2022-12-18T14:33:28;9.90;98.20
28460;DHT22;32528;45.712;9.192;2022-12-18T14:35:29;9.90;98.30
28460;DHT22;32528;45.712;9.192;2022-12-18T14:37:30;9.90;98.30
28460;DHT22;32528;45.712;9.192;2022-12-18T14:39:31;9.70;98.30
28460;DHT22;32528;45.712;9.192;2022-12-18T14:41:32;9.60;98.50
28460;DHT22;32528;45.712;9.192;2022-12-18T14:43:34;9.60;98.70